createdAt,value
2022-12-28T09:34:58.613Z,3.02
2022-12-28T09:37:02.077Z,3.02
2022-12-28T09:39:10.313Z,2.53
2022-12-28T09:41:16.042Z,2.56
2022-12-28T09:43:19.338Z,2.63
2022-12-28T09:45:25.576Z,2.64
2022-12-28T09:47:44.642Z,2.71
2022-12-28T09:50:11.725Z,2.74
2022-12-28T09:52:13.933Z,2.83
2022-12-28T09:54:16.596Z,2.79
2022-12-28T09:56:40.700Z,3.02
2022-12-28T09:58:47.913Z,3.07
2022-12-28T10:00:56.595Z,3.32
2022-12-28T10:03:03.476Z,3.39
2022-12-28T10:05:06.858Z,3.51
2022-12-28T10:07:11.888Z,3.59
2022-12-28T10:09:25.709Z,3.44
2022-12-28T10:11:31.755Z,3.67
2022-12-28T10:13:54.735Z,3.80
2022-12-28T10:15:58.001Z,4.01
2022-12-28T10:18:00.329Z,3.83
2022-12-28T10:20:02.647Z,3.67
2022-12-28T10:22:27.190Z,3.50
2022-12-28T10:24:32.156Z,3.56
2022-12-28T10:26:36.034Z,3.72
2022-12-28T10:28:49.139Z,3.76
2022-12-28T10:31:07.724Z,3.84
2022-12-28T10:33:15.675Z,4.06
2022-12-28T10:35:39.119Z,4.35
2022-12-28T10:37:44.707Z,4.66
2022-12-28T10:40:24.319Z,4.80
2022-12-28T10:42:35.909Z,4.87
2022-12-28T10:44:40.960Z,5.16
2022-12-28T10:47:02.744Z,4.94
2022-12-28T10:49:07.734Z,4.84
2022-12-28T10:51:19.211Z,4.92
2022-12-28T10:53:27.701Z,4.93
2022-12-28T10:55:33.931Z,4.88
2022-12-28T10:57:38.062Z,4.57
2022-12-28T10:59:40.787Z,4.66
2022-12-28T11:01:43.814Z,4.76
2022-12-28T11:03:55.319Z,4.86
2022-12-28T11:06:26.296Z,5.15
2022-12-28T11:08:29.993Z,5.27
2022-12-28T11:10:33.030Z,5.33
2022-12-28T11:12:43.409Z,5.40
2022-12-28T11:14:46.159Z,5.43
2022-12-28T11:16:48.664Z,5.38
2022-12-28T11:18:51.375Z,5.58
2022-12-28T11:20:54.787Z,5.69
2022-12-28T11:22:57.637Z,5.73
2022-12-28T11:25:01.758Z,6.00
2022-12-28T11:27:04.411Z,6.14
2022-12-28T11:29:06.897Z,6.19
2022-12-28T11:31:22.932Z,6.37
2022-12-28T11:33:35.525Z,6.56
2022-12-28T11:35:40.491Z,6.76
2022-12-28T11:38:04.499Z,6.79
2022-12-28T11:40:30.672Z,6.76
2022-12-28T11:42:41.298Z,6.48
2022-12-28T11:44:48.375Z,6.46
2022-12-28T11:47:04.070Z,6.56
2022-12-28T11:49:34.490Z,7.22
2022-12-28T11:51:37.977Z,9.23
2022-12-28T11:53:46.550Z,11.65
2022-12-28T11:56:05.047Z,13.43
2022-12-28T11:58:39.867Z,14.49
2022-12-28T12:00:48.281Z,14.64
2022-12-28T12:02:52.969Z,15.39
2022-12-28T12:04:55.418Z,15.22
2022-12-28T12:06:57.895Z,14.96
2022-12-28T12:09:00.513Z,14.04
2022-12-28T12:11:28.580Z,13.08
2022-12-28T12:13:30.843Z,10.94
2022-12-28T12:15:40.187Z,10.77
2022-12-28T12:18:09.397Z,10.80
2022-12-28T12:20:21.302Z,12.06
2022-12-28T12:22:34.446Z,12.06
2022-12-28T12:24:50.334Z,11.39
2022-12-28T12:26:58.764Z,10.00
2022-12-28T12:29:18.577Z,9.68
2022-12-28T12:31:37.798Z,9.14
2022-12-28T12:33:46.578Z,8.65
2022-12-28T12:36:21.028Z,8.34
2022-12-28T12:38:35.070Z,7.92
2022-12-28T12:40:58.900Z,7.89
2022-12-28T12:43:33.195Z,6.89
2022-12-28T12:45:50.725Z,6.95
2022-12-28T12:48:24.450Z,6.58
2022-12-28T12:50:55.686Z,6.37
2022-12-28T12:53:40.754Z,6.42
2022-12-28T12:56:12.239Z,6.69
2022-12-28T12:58:40.338Z,6.49
2022-12-28T13:01:29.628Z,6.62
2022-12-28T13:03:37.398Z,6.73
2022-12-28T13:05:43.322Z,6.87
2022-12-28T13:07:46.099Z,6.98
2022-12-28T13:09:50.729Z,7.14
2022-12-28T13:11:53.262Z,7.23
2022-12-28T13:13:56.208Z,6.77
2022-12-28T13:16:03.907Z,6.89
2022-12-28T13:18:44.147Z,7.02
2022-12-28T13:20:38.487Z,7.01
2022-12-28T13:22:46.388Z,6.85
2022-12-28T13:24:48.909Z,7.04
2022-12-28T13:26:52.284Z,6.88
2022-12-28T13:29:02.654Z,6.73
2022-12-28T13:31:14.407Z,6.71
2022-12-28T13:33:21.587Z,6.73
2022-12-28T13:35:30.175Z,6.45
2022-12-28T13:37:32.626Z,6.49
2022-12-28T13:39:41.482Z,6.40
2022-12-28T13:41:53.580Z,6.44
2022-12-28T13:44:14.479Z,6.50
2022-12-28T13:46:20.591Z,6.47
2022-12-28T13:48:24.498Z,6.51
2022-12-28T13:50:31.485Z,6.59
2022-12-28T13:52:36.755Z,6.39
2022-12-28T13:54:40.925Z,6.47
2022-12-28T13:56:44.491Z,6.66
2022-12-28T13:58:53.882Z,6.65
2022-12-28T14:00:59.001Z,6.62
2022-12-28T14:03:02.509Z,6.60
2022-12-28T14:05:05.223Z,6.48
2022-12-28T14:07:16.128Z,6.43
2022-12-28T14:09:20.287Z,6.29
2022-12-28T14:11:23.028Z,6.19
2022-12-28T14:13:26.124Z,6.18
2022-12-28T14:15:28.952Z,6.02
2022-12-28T14:17:31.726Z,6.22
2022-12-28T14:19:35.097Z,6.03
2022-12-28T14:21:44.272Z,6.06
2022-12-28T14:23:46.681Z,5.97
2022-12-28T14:25:49.754Z,5.87
2022-12-28T14:27:59.209Z,5.89
2022-12-28T14:30:02.110Z,5.72
2022-12-28T14:32:08.376Z,5.99
2022-12-28T14:34:23.433Z,6.13
2022-12-28T14:36:33.078Z,6.40
2022-12-28T14:38:40.450Z,6.13
2022-12-28T14:40:43.203Z,6.13
2022-12-28T14:42:50.120Z,5.87
2022-12-28T14:44:56.242Z,5.82
2022-12-28T14:47:00.227Z,5.80
2022-12-28T14:49:28.474Z,5.75
2022-12-28T14:51:31.803Z,5.78
2022-12-28T14:53:34.582Z,5.63
2022-12-28T14:55:54.031Z,5.57
2022-12-28T14:58:02.764Z,5.58
2022-12-28T15:00:07.365Z,5.51
2022-12-28T15:02:36.044Z,5.63
2022-12-28T15:04:41.005Z,5.55
2022-12-28T15:06:43.630Z,5.61
2022-12-28T15:08:51.081Z,5.52
2022-12-28T15:10:58.965Z,5.43
2022-12-28T15:13:01.632Z,5.54
2022-12-28T15:15:04.235Z,5.36
2022-12-28T15:17:07.237Z,5.39
2022-12-28T15:19:09.957Z,5.12
2022-12-28T15:21:18.122Z,5.08
2022-12-28T15:23:21.149Z,5.02
2022-12-28T15:25:23.819Z,5.03
2022-12-28T15:27:26.264Z,5.04
2022-12-28T15:29:55.701Z,5.00
2022-12-28T15:31:51.433Z,4.94
2022-12-28T15:33:53.855Z,4.83
2022-12-28T15:36:03.790Z,4.70
2022-12-28T15:38:06.563Z,4.70
2022-12-28T15:40:09.874Z,4.89
2022-12-28T15:42:12.199Z,4.88
2022-12-28T15:44:17.447Z,4.82
2022-12-28T15:46:19.818Z,5.00
2022-12-28T15:48:22.467Z,5.13
2022-12-28T15:50:25.139Z,5.20
2022-12-28T15:52:27.572Z,5.14
2022-12-28T15:54:29.914Z,5.10
2022-12-28T15:56:35.600Z,5.14
2022-12-28T15:58:38.156Z,5.27
2022-12-28T16:00:45.718Z,5.18
2022-12-28T16:02:50.223Z,5.12
2022-12-28T16:04:52.667Z,5.13
2022-12-28T16:06:55.026Z,5.31
2022-12-28T16:08:59.719Z,5.15
2022-12-28T16:11:16.188Z,4.95
2022-12-28T16:13:18.523Z,4.94
2022-12-28T16:15:21.199Z,5.02
2022-12-28T16:17:23.598Z,5.02
2022-12-28T16:19:25.932Z,4.94
2022-12-28T16:21:29.438Z,4.94
2022-12-28T16:23:36.668Z,4.88
2022-12-28T16:25:39.031Z,4.92
2022-12-28T16:27:41.747Z,4.88
2022-12-28T16:29:46.137Z,4.99
2022-12-28T16:31:48.570Z,4.92
2022-12-28T16:34:15.954Z,4.96
2022-12-28T16:36:20.098Z,5.06
2022-12-28T16:38:24.937Z,5.01
2022-12-28T16:40:27.542Z,4.96
2022-12-28T16:42:30.153Z,5.05
2022-12-28T16:44:33.468Z,5.00
2022-12-28T16:46:36.264Z,4.89
2022-12-28T16:48:40.080Z,4.84
2022-12-28T16:50:42.834Z,4.88
2022-12-28T16:52:45.486Z,4.89
2022-12-28T16:54:47.789Z,4.79
2022-12-28T16:56:51.120Z,4.73
2022-12-28T16:58:58.287Z,4.82
2022-12-28T17:01:09.429Z,4.70
2022-12-28T17:03:12.269Z,4.67
2022-12-28T17:05:15.536Z,4.46
2022-12-28T17:07:17.867Z,4.29
2022-12-28T17:09:21.034Z,4.20
2022-12-28T17:11:23.664Z,4.33
2022-12-28T17:13:26.015Z,4.26
2022-12-28T17:15:28.376Z,4.27
2022-12-28T17:17:30.989Z,4.08
2022-12-28T17:19:33.380Z,3.98
2022-12-28T17:21:36.086Z,4.09
2022-12-28T17:23:40.324Z,4.08
2022-12-28T17:25:43.314Z,3.92
2022-12-28T17:27:45.758Z,3.87
2022-12-28T17:29:48.631Z,3.85
2022-12-28T17:31:51.021Z,3.80
2022-12-28T17:33:57.798Z,3.83
2022-12-28T17:36:01.731Z,3.75
2022-12-28T17:38:04.328Z,3.86
2022-12-28T17:40:07.475Z,3.72
2022-12-28T17:42:10.562Z,3.71
2022-12-28T17:44:12.932Z,3.65
2022-12-28T17:46:15.746Z,3.60
2022-12-28T17:48:20.338Z,3.64
2022-12-28T17:50:23.463Z,3.70
2022-12-28T17:52:25.811Z,3.67
2022-12-28T17:54:28.667Z,3.60
2022-12-28T17:56:31.128Z,3.66
2022-12-28T17:58:33.887Z,3.62
2022-12-28T18:00:36.485Z,3.52
2022-12-28T18:02:39.378Z,3.52
2022-12-28T18:04:42.016Z,3.53
2022-12-28T18:06:44.437Z,3.50
2022-12-28T18:08:47.343Z,3.44
2022-12-28T18:10:50.029Z,3.42
2022-12-28T18:12:52.824Z,3.50
2022-12-28T18:14:55.651Z,3.48
2022-12-28T18:16:58.397Z,3.44
2022-12-28T18:19:00.853Z,3.53
2022-12-28T18:21:07.645Z,3.39
2022-12-28T18:23:11.035Z,3.43
2022-12-28T18:25:13.793Z,3.26
2022-12-28T18:27:17.789Z,3.23
2022-12-28T18:29:20.310Z,3.11
2022-12-28T18:31:23.914Z,3.17
2022-12-28T18:33:27.355Z,3.09
2022-12-28T18:35:29.974Z,3.03
2022-12-28T18:37:33.041Z,3.10
2022-12-28T18:39:36.119Z,3.05
2022-12-28T18:41:39.300Z,3.10
2022-12-28T18:43:43.563Z,3.07
2022-12-28T18:45:58.850Z,2.95
2022-12-28T18:48:01.793Z,2.97
2022-12-28T18:50:04.961Z,3.06
2022-12-28T18:52:09.672Z,3.08
2022-12-28T18:54:13.123Z,3.05
2022-12-28T18:56:18.838Z,2.99
2022-12-28T18:58:22.159Z,2.99
2022-12-28T19:00:24.538Z,3.12
2022-12-28T19:02:27.344Z,2.99
2022-12-28T19:04:30.641Z,3.00
2022-12-28T19:06:34.112Z,2.94
2022-12-28T19:08:38.460Z,2.90
2022-12-28T19:10:48.966Z,2.85
2022-12-28T19:12:51.649Z,2.71
2022-12-28T19:14:54.428Z,2.73
2022-12-28T19:16:57.260Z,2.66
2022-12-28T19:19:00.821Z,2.76
2022-12-28T19:21:28.823Z,2.57
2022-12-28T19:23:32.080Z,2.54
2022-12-28T19:25:34.909Z,2.55
2022-12-28T19:27:38.028Z,2.64
2022-12-28T19:29:41.741Z,2.55
2022-12-28T19:31:44.743Z,2.67
2022-12-28T19:33:47.682Z,2.71
2022-12-28T19:35:51.015Z,2.66
2022-12-28T19:37:53.707Z,2.66
2022-12-28T19:39:57.892Z,2.75
2022-12-28T19:42:01.088Z,2.73
2022-12-28T19:44:03.860Z,2.76
2022-12-28T19:46:09.491Z,2.56
2022-12-28T19:48:12.757Z,2.60
2022-12-28T19:50:15.669Z,2.64
2022-12-28T19:52:18.014Z,2.60
2022-12-28T19:54:20.998Z,2.71
2022-12-28T19:56:24.137Z,2.63
2022-12-28T19:58:27.034Z,2.66
2022-12-28T20:00:30.821Z,2.46
2022-12-28T20:02:34.635Z,2.63
2022-12-28T20:04:37.508Z,2.52
2022-12-28T20:06:41.767Z,2.34
2022-12-28T20:08:46.692Z,2.46
2022-12-28T20:10:58.833Z,2.51
2022-12-28T20:13:01.714Z,2.26
2022-12-28T20:15:05.716Z,2.10
2022-12-28T20:17:08.572Z,2.09
2022-12-28T20:19:13.465Z,2.18
2022-12-28T20:21:20.085Z,2.30
2022-12-28T20:23:23.364Z,2.23
2022-12-28T20:25:25.821Z,2.28
2022-12-28T20:27:30.597Z,2.25
2022-12-28T20:29:33.674Z,2.35
2022-12-28T20:31:36.948Z,2.34
2022-12-28T20:33:41.035Z,2.26
2022-12-28T20:35:44.462Z,2.34
2022-12-28T20:37:47.598Z,2.30
2022-12-28T20:39:50.415Z,2.27
2022-12-28T20:42:11.483Z,2.17
2022-12-28T20:44:17.648Z,2.14
2022-12-28T20:46:20.580Z,2.18
2022-12-28T20:48:23.495Z,2.22
2022-12-28T20:50:26.227Z,2.29
2022-12-28T20:52:29.113Z,2.36
2022-12-28T20:54:33.254Z,2.17
2022-12-28T20:56:39.005Z,2.15
2022-12-28T20:58:41.993Z,2.25
2022-12-28T21:00:44.383Z,2.07
2022-12-28T21:02:46.776Z,2.24
2022-12-28T21:04:50.847Z,2.09
2022-12-28T21:06:54.951Z,2.04
2022-12-28T21:08:57.684Z,2.22
2022-12-28T21:11:01.914Z,1.93
2022-12-28T21:13:04.515Z,1.93
2022-12-28T21:15:08.215Z,1.86
2022-12-28T21:17:11.296Z,1.78
2022-12-28T21:19:14.003Z,1.86
2022-12-28T21:21:19.335Z,1.90
2022-12-28T21:23:22.394Z,1.94
2022-12-28T21:25:25.429Z,1.89
2022-12-28T21:27:29.234Z,1.86
2022-12-28T21:29:31.950Z,1.92
2022-12-28T21:31:34.402Z,1.97
2022-12-28T21:33:37.866Z,1.82
2022-12-28T21:35:40.746Z,1.77
2022-12-28T21:37:43.142Z,1.73
2022-12-28T21:39:45.919Z,1.76
2022-12-28T21:41:49.007Z,1.45
2022-12-28T21:43:51.554Z,1.61
2022-12-28T21:46:01.875Z,1.64
2022-12-28T21:48:05.049Z,1.67
2022-12-28T21:50:09.282Z,1.70
2022-12-28T21:52:11.748Z,1.65
2022-12-28T21:54:17.103Z,1.57
2022-12-28T21:56:19.537Z,1.62
2022-12-28T21:58:21.865Z,1.62
2022-12-28T22:00:43.306Z,1.58
2022-12-28T22:03:04.518Z,1.53
2022-12-28T22:05:25.592Z,1.60
2022-12-28T22:07:27.977Z,1.61
2022-12-28T22:09:49.659Z,1.72
2022-12-28T22:12:10.623Z,1.69
2022-12-28T22:14:12.953Z,1.63
2022-12-28T22:16:15.605Z,1.68
2022-12-28T22:18:52.724Z,1.56
2022-12-28T22:20:47.181Z,1.66
2022-12-28T22:22:49.848Z,1.55
2022-12-28T22:24:52.446Z,1.30
2022-12-28T22:26:54.769Z,1.24
2022-12-28T22:28:57.494Z,1.39
2022-12-28T22:31:06.699Z,1.48
2022-12-28T22:33:09.150Z,1.37
2022-12-28T22:35:12.131Z,1.26
2022-12-28T22:37:14.956Z,1.23
2022-12-28T22:39:17.322Z,1.35
2022-12-28T22:41:20.497Z,1.33
2022-12-28T22:43:22.799Z,1.43
2022-12-28T22:45:25.400Z,1.41
2022-12-28T22:47:28.207Z,1.47
2022-12-28T22:49:30.881Z,1.50
2022-12-28T22:51:33.183Z,1.47
2022-12-28T22:53:36.833Z,1.36
2022-12-28T22:55:39.302Z,1.41
2022-12-28T22:57:41.669Z,1.62
2022-12-28T22:59:44.455Z,1.68
2022-12-28T23:01:48.405Z,1.57
2022-12-28T23:03:50.922Z,1.48
2022-12-28T23:05:53.618Z,1.41
2022-12-28T23:07:55.990Z,1.44
2022-12-28T23:09:58.382Z,1.48
2022-12-28T23:12:01.124Z,1.40
2022-12-28T23:14:24.295Z,1.40
2022-12-28T23:16:26.682Z,1.31
2022-12-28T23:18:48.630Z,1.27
2022-12-28T23:21:09.489Z,1.38
2022-12-28T23:23:30.495Z,1.29
2022-12-28T23:25:51.927Z,1.25
2022-12-28T23:27:54.108Z,1.29
2022-12-28T23:29:56.450Z,1.24
2022-12-28T23:31:59.841Z,1.18
2022-12-28T23:34:03.148Z,1.09
2022-12-28T23:36:05.827Z,1.12
2022-12-28T23:38:08.769Z,1.10
2022-12-28T23:40:12.975Z,1.07
2022-12-28T23:42:15.425Z,1.03
2022-12-28T23:44:22.801Z,1.05
2022-12-28T23:46:25.127Z,1.04
2022-12-28T23:48:27.401Z,1.06
2022-12-28T23:50:30.090Z,1.09
2022-12-28T23:52:32.988Z,0.86
2022-12-28T23:54:35.383Z,0.95
2022-12-28T23:56:38.008Z,0.89
